createdAt,value
2018-02-21T00:00:55.084Z,-0.43
2018-02-21T00:02:22.111Z,-0.42
2018-02-21T00:03:48.948Z,-0.38
2018-02-21T00:05:15.808Z,-0.32
2018-02-21T00:06:42.901Z,-0.25
2018-02-21T00:08:10.289Z,-0.21
2018-02-21T00:09:36.898Z,-0.18
2018-02-21T00:11:03.111Z,-0.14
2018-02-21T00:12:30.629Z,-0.11
2018-02-21T00:13:57.497Z,-0.09
2018-02-21T00:15:24.552Z,-0.06
2018-02-21T00:16:51.806Z,-0.04
2018-02-21T00:18:17.883Z,-0.03
2018-02-21T00:19:44.874Z,-0.01
2018-02-21T00:21:12.386Z,0.01
2018-02-21T00:22:39.318Z,0.03
2018-02-21T00:24:05.366Z,0.04
2018-02-21T00:25:33.275Z,0.04
2018-02-21T00:27:00.247Z,0.04
2018-02-21T00:28:26.810Z,0.06
2018-02-21T00:29:52.795Z,0.07
2018-02-21T00:31:20.973Z,0.08
2018-02-21T00:32:47.951Z,0.10
2018-02-21T00:34:15.121Z,0.12
2018-02-21T00:35:41.273Z,0.13
2018-02-21T00:37:09.198Z,0.14
2018-02-21T00:38:34.877Z,0.15
2018-02-21T00:40:02.074Z,0.17
2018-02-21T00:41:30.054Z,0.18
2018-02-21T00:42:57.336Z,0.20
2018-02-21T00:44:24.031Z,0.21
2018-02-21T00:45:51.065Z,0.23
2018-02-21T00:47:16.714Z,0.23
2018-02-21T00:48:44.858Z,0.25
2018-02-21T00:50:10.967Z,0.29
2018-02-21T00:51:38.204Z,0.22
2018-02-21T00:53:06.207Z,0.21
2018-02-21T00:54:32.425Z,0.23
2018-02-21T00:55:58.833Z,0.25
2018-02-21T00:57:26.034Z,0.27
2018-02-21T00:58:52.951Z,0.30
2018-02-21T01:00:20.837Z,0.32
2018-02-21T01:01:46.812Z,0.34
2018-02-21T01:03:14.921Z,0.35
2018-02-21T01:04:41.977Z,0.36
2018-02-21T01:06:08.771Z,0.26
2018-02-21T01:07:34.941Z,0.25
2018-02-21T01:09:02.055Z,0.26
2018-02-21T01:10:29.781Z,0.29
2018-02-21T01:11:56.816Z,0.32
2018-02-21T01:13:23.105Z,0.33
2018-02-21T01:14:51.404Z,0.34
2018-02-21T01:16:18.354Z,0.36
2018-02-21T01:17:45.014Z,0.37
2018-02-21T01:19:10.577Z,0.39
2018-02-21T01:20:37.811Z,0.40
2018-02-21T01:22:04.708Z,0.41
2018-02-21T01:23:31.526Z,0.42
2018-02-21T01:24:58.593Z,0.43
2018-02-21T01:26:25.889Z,0.40
2018-02-21T01:27:52.976Z,0.43
2018-02-21T01:29:19.356Z,0.42
2018-02-21T01:30:46.207Z,0.36
2018-02-21T01:32:14.422Z,0.36
2018-02-21T01:33:41.564Z,0.38
2018-02-21T01:35:07.217Z,0.40
2018-02-21T01:36:35.377Z,0.42
2018-02-21T01:38:02.552Z,0.45
2018-02-21T01:39:29.738Z,0.48
2018-02-21T01:40:55.945Z,0.48
2018-02-21T01:42:22.324Z,0.48
2018-02-21T01:43:49.144Z,0.48
2018-02-21T01:45:15.322Z,0.47
2018-02-21T01:46:41.827Z,0.44
2018-02-21T01:48:08.890Z,0.27
2018-02-21T01:49:36.946Z,0.25
2018-02-21T01:51:03.980Z,0.21
2018-02-21T01:52:29.940Z,0.19
2018-02-21T01:53:57.088Z,0.21
2018-02-21T01:55:25.148Z,0.24
2018-02-21T01:56:51.410Z,0.27
2018-02-21T01:58:19.440Z,0.30
2018-02-21T01:59:45.803Z,0.31
2018-02-21T02:01:12.975Z,0.34
2018-02-21T02:02:40.223Z,0.35
2018-02-21T02:04:07.327Z,0.37
2018-02-21T02:05:35.268Z,0.38
2018-02-21T02:07:02.352Z,0.38
2018-02-21T02:08:29.457Z,0.41
2018-02-21T02:09:56.721Z,0.45
2018-02-21T02:11:23.750Z,0.48
2018-02-21T02:12:50.877Z,0.44
2018-02-21T02:14:17.004Z,0.44
2018-02-21T02:15:44.902Z,0.42
2018-02-21T02:17:11.216Z,0.40
2018-02-21T02:18:37.350Z,0.43
2018-02-21T02:20:04.490Z,0.45
2018-02-21T02:21:31.335Z,0.49
2018-02-21T02:22:58.382Z,0.52
2018-02-21T02:24:25.414Z,0.54
2018-02-21T02:25:52.895Z,0.56
2018-02-21T02:27:19.115Z,0.57
2018-02-21T02:28:46.209Z,0.59
2018-02-21T02:30:14.496Z,0.60
2018-02-21T02:31:41.563Z,0.60
2018-02-21T02:33:07.892Z,0.61
2018-02-21T02:34:35.125Z,0.61
2018-02-21T02:36:01.643Z,0.62
2018-02-21T02:37:27.167Z,0.63
2018-02-21T02:38:54.438Z,0.63
2018-02-21T02:40:21.723Z,0.58
2018-02-21T02:41:49.669Z,0.53
2018-02-21T02:43:15.870Z,0.53
2018-02-21T02:44:43.801Z,0.54
2018-02-21T02:46:11.109Z,0.56
2018-02-21T02:47:37.889Z,0.54
2018-02-21T02:49:05.036Z,0.54
2018-02-21T02:50:32.172Z,0.54
2018-02-21T02:51:59.331Z,0.53
2018-02-21T02:53:26.507Z,0.50
2018-02-21T02:54:53.120Z,0.48
2018-02-21T02:56:19.287Z,0.46
2018-02-21T02:57:47.522Z,0.41
2018-02-21T02:59:13.682Z,0.41
2018-02-21T03:00:40.827Z,0.37
2018-02-21T03:02:07.832Z,0.36
2018-02-21T03:03:34.960Z,0.35
2018-02-21T03:05:01.739Z,0.34
2018-02-21T03:06:29.788Z,0.32
2018-02-21T03:07:56.094Z,0.32
2018-02-21T03:09:22.423Z,0.31
2018-02-21T03:10:50.494Z,0.25
2018-02-21T03:12:17.855Z,0.24
2018-02-21T03:13:43.901Z,0.25
2018-02-21T03:15:11.542Z,0.26
2018-02-21T03:16:37.625Z,0.28
2018-02-21T03:18:05.748Z,0.27
2018-02-21T03:19:32.828Z,0.28
2018-02-21T03:20:58.763Z,0.30
2018-02-21T03:22:26.918Z,0.32
2018-02-21T03:23:53.169Z,0.34
2018-02-21T03:25:20.466Z,0.35
2018-02-21T03:26:46.563Z,0.35
2018-02-21T03:28:14.005Z,0.33
2018-02-21T03:29:41.016Z,0.35
2018-02-21T03:31:07.248Z,0.36
2018-02-21T03:32:35.476Z,0.38
2018-02-21T03:34:00.877Z,0.40
2018-02-21T03:35:27.510Z,0.41
2018-02-21T03:36:54.971Z,0.42
2018-02-21T03:38:22.212Z,0.44
2018-02-21T03:39:48.628Z,0.44
2018-02-21T03:41:15.143Z,0.45
2018-02-21T03:42:42.062Z,0.48
2018-02-21T03:44:08.399Z,0.46
2018-02-21T03:45:36.596Z,0.44
2018-02-21T03:47:03.712Z,0.40
2018-02-21T03:48:30.686Z,0.36
2018-02-21T03:49:57.816Z,0.33
2018-02-21T03:51:24.028Z,0.34
2018-02-21T03:52:51.729Z,0.35
2018-02-21T03:54:17.729Z,0.34
2018-02-21T03:55:45.370Z,0.33
2018-02-21T03:57:12.401Z,0.30
2018-02-21T03:58:38.615Z,0.27
2018-02-21T04:00:06.387Z,0.24
2018-02-21T04:01:32.500Z,0.23
2018-02-21T04:03:00.443Z,0.22
2018-02-21T04:04:27.444Z,0.24
2018-02-21T04:05:54.170Z,0.25
2018-02-21T04:07:21.298Z,0.22
2018-02-21T04:08:48.416Z,0.23
2018-02-21T04:10:15.461Z,0.25
2018-02-21T04:11:42.600Z,0.24
2018-02-21T04:13:08.796Z,0.26
2018-02-21T04:14:36.819Z,0.24
2018-02-21T04:16:04.037Z,0.21
2018-02-21T04:17:30.568Z,0.19
2018-02-21T04:18:57.826Z,0.22
2018-02-21T04:20:23.835Z,0.25
2018-02-21T04:21:51.773Z,0.28
2018-02-21T04:23:19.049Z,0.29
2018-02-21T04:24:46.457Z,0.27
2018-02-21T04:26:13.650Z,0.27
2018-02-21T04:27:40.716Z,0.27
2018-02-21T04:29:06.582Z,0.29
2018-02-21T04:30:34.780Z,0.30
2018-02-21T04:32:00.661Z,0.30
2018-02-21T04:33:28.228Z,0.33
2018-02-21T04:34:55.332Z,0.31
2018-02-21T04:36:21.490Z,0.32
2018-02-21T04:37:48.533Z,0.32
2018-02-21T04:39:16.448Z,0.34
2018-02-21T04:40:43.584Z,0.36
2018-02-21T04:42:10.454Z,0.36
2018-02-21T04:43:37.537Z,0.35
2018-02-21T04:45:03.664Z,0.35
2018-02-21T04:46:30.903Z,0.36
2018-02-21T04:47:57.165Z,0.35
2018-02-21T04:49:24.819Z,0.35
2018-02-21T04:50:51.356Z,0.33
2018-02-21T04:52:16.900Z,0.31
2018-02-21T04:53:44.887Z,0.27
2018-02-21T04:55:12.097Z,0.26
2018-02-21T04:56:39.212Z,0.24
2018-02-21T04:58:05.245Z,0.21
2018-02-21T04:59:32.846Z,0.17
2018-02-21T05:01:00.122Z,0.14
2018-02-21T05:02:25.534Z,0.12
2018-02-21T05:03:53.576Z,0.07
2018-02-21T05:05:19.774Z,0.06
2018-02-21T05:06:47.126Z,0.06
2018-02-21T05:08:15.087Z,0.07
2018-02-21T05:09:41.324Z,0.08
2018-02-21T05:11:09.439Z,0.06
2018-02-21T05:12:36.441Z,0.06
2018-02-21T05:14:03.412Z,0.07
2018-02-21T05:15:29.464Z,0.06
2018-02-21T05:16:57.083Z,0.04
2018-02-21T05:18:24.230Z,0.04
2018-02-21T05:19:50.303Z,0.01
2018-02-21T05:21:16.876Z,-0.01
2018-02-21T05:22:44.061Z,-0.02
2018-02-21T05:24:10.961Z,-0.03
2018-02-21T05:25:39.094Z,-0.06
2018-02-21T05:27:04.892Z,-0.08
2018-02-21T05:28:31.526Z,-0.09
2018-02-21T05:29:58.594Z,-0.09
2018-02-21T05:31:25.714Z,-0.05
2018-02-21T05:32:53.775Z,-0.05
2018-02-21T05:34:21.048Z,-0.08
2018-02-21T05:35:48.108Z,-0.10
2018-02-21T05:37:15.116Z,-0.14
2018-02-21T05:38:40.740Z,-0.15
2018-02-21T05:40:09.003Z,-0.12
2018-02-21T05:41:35.782Z,-0.13
2018-02-21T05:43:02.912Z,-0.13
2018-02-21T05:44:28.925Z,-0.12
2018-02-21T05:45:57.167Z,-0.10
2018-02-21T05:47:23.986Z,-0.14
2018-02-21T05:48:50.011Z,-0.18
2018-02-21T05:50:18.258Z,-0.21
2018-02-21T05:51:44.099Z,-0.25
2018-02-21T05:53:11.816Z,-0.26
2018-02-21T05:54:38.989Z,-0.26
2018-02-21T05:56:05.198Z,-0.27
2018-02-21T05:57:33.228Z,-0.27
2018-02-21T05:59:00.094Z,-0.27
2018-02-21T06:00:25.708Z,-0.30
2018-02-21T06:01:53.998Z,-0.31
2018-02-21T06:03:20.995Z,-0.32
2018-02-21T06:04:46.948Z,-0.33
2018-02-21T06:06:14.128Z,-0.32
2018-02-21T06:07:41.306Z,-0.27
2018-02-21T06:09:08.465Z,-0.23
2018-02-21T06:10:35.087Z,-0.24
2018-02-21T06:12:02.961Z,-0.24
2018-02-21T06:13:29.218Z,-0.26
2018-02-21T06:14:57.213Z,-0.29
2018-02-21T06:16:23.406Z,-0.30
2018-02-21T06:17:51.613Z,-0.33
2018-02-21T06:19:23.645Z,-0.36
2018-02-21T06:20:44.719Z,-0.39
2018-02-21T06:22:12.850Z,-0.41
2018-02-21T06:23:38.886Z,-0.43
2018-02-21T06:25:06.943Z,-0.45
2018-02-21T06:26:33.674Z,-0.45
2018-02-21T06:27:59.606Z,-0.48
2018-02-21T06:29:27.235Z,-0.48
2018-02-21T06:30:54.330Z,-0.47
2018-02-21T06:32:21.263Z,-0.47
2018-02-21T06:33:47.283Z,-0.48
2018-02-21T06:35:14.361Z,-0.48
2018-02-21T06:36:42.590Z,-0.49
2018-02-21T06:38:09.127Z,-0.49
2018-02-21T06:39:36.320Z,-0.49
2018-02-21T06:41:03.275Z,-0.49
2018-02-21T06:42:30.573Z,-0.47
2018-02-21T06:43:56.624Z,-0.46
2018-02-21T06:45:24.330Z,-0.46
2018-02-21T06:46:50.541Z,-0.46
2018-02-21T06:48:18.087Z,-0.45
2018-02-21T06:49:45.329Z,-0.43
2018-02-21T06:51:12.281Z,-0.40
2018-02-21T06:52:37.910Z,-0.38
2018-02-21T06:54:05.982Z,-0.36
2018-02-21T06:55:31.964Z,-0.34
2018-02-21T06:56:59.978Z,-0.31
2018-02-21T06:58:25.818Z,-0.28
2018-02-21T06:59:53.620Z,-0.27
2018-02-21T07:01:20.891Z,-0.26
2018-02-21T07:02:48.082Z,-0.24
2018-02-21T07:04:13.230Z,-0.24
2018-02-21T07:05:41.063Z,-0.25
2018-02-21T07:07:07.885Z,-0.25
2018-02-21T07:08:33.622Z,-0.25
2018-02-21T07:10:01.619Z,-0.24
2018-02-21T07:11:28.236Z,-0.24
2018-02-21T07:12:54.247Z,-0.22
2018-02-21T07:14:22.563Z,-0.21
2018-02-21T07:15:49.242Z,-0.19
2018-02-21T07:17:16.384Z,-0.19
2018-02-21T07:18:43.527Z,-0.18
2018-02-21T07:20:10.751Z,-0.15
2018-02-21T07:21:36.812Z,-0.11
2018-02-21T07:23:04.873Z,-0.08
2018-02-21T07:24:31.991Z,-0.06
2018-02-21T07:25:58.081Z,-0.03
2018-02-21T07:27:26.177Z,0.01
2018-02-21T07:28:53.364Z,0.07
2018-02-21T07:30:20.447Z,0.11
2018-02-21T07:31:47.593Z,0.13
2018-02-21T07:33:14.765Z,0.17
2018-02-21T07:34:40.855Z,0.20
2018-02-21T07:36:08.890Z,0.20
2018-02-21T07:37:35.811Z,0.23
2018-02-21T07:39:01.595Z,0.26
2018-02-21T07:40:28.777Z,0.29
2018-02-21T07:41:56.890Z,0.33
2018-02-21T07:43:22.847Z,0.36
2018-02-21T07:44:49.979Z,0.39
2018-02-21T07:46:17.990Z,0.41
2018-02-21T07:47:45.263Z,0.44
2018-02-21T07:49:11.084Z,0.48
2018-02-21T07:50:39.135Z,0.51
2018-02-21T07:52:05.552Z,0.55
2018-02-21T07:53:32.656Z,0.55
2018-02-21T07:54:58.579Z,0.56
2018-02-21T07:56:26.552Z,0.55
2018-02-21T07:57:52.668Z,0.53
2018-02-21T07:59:20.779Z,0.52
2018-02-21T08:00:46.940Z,0.54
2018-02-21T08:02:14.945Z,0.56
2018-02-21T08:03:42.138Z,0.60
2018-02-21T08:05:07.905Z,0.64
2018-02-21T08:06:35.072Z,0.69
2018-02-21T08:08:03.050Z,0.74
2018-02-21T08:09:30.186Z,0.78
2018-02-21T08:10:56.799Z,0.83
2018-02-21T08:12:22.796Z,0.87
2018-02-21T08:13:50.784Z,0.92
2018-02-21T08:15:17.518Z,0.95
2018-02-21T08:16:44.478Z,1.00
2018-02-21T08:18:10.233Z,1.03
2018-02-21T08:19:38.422Z,1.07
2018-02-21T08:21:04.580Z,1.11
2018-02-21T08:22:32.543Z,1.15
2018-02-21T08:23:59.396Z,1.19
2018-02-21T08:25:26.701Z,1.23
2018-02-21T08:26:52.312Z,1.29
2018-02-21T08:28:20.570Z,1.35
2018-02-21T08:29:47.549Z,1.41
2018-02-21T08:31:13.699Z,1.44
2018-02-21T08:32:41.772Z,1.46
2018-02-21T08:34:08.103Z,1.48
2018-02-21T08:35:35.146Z,1.50
2018-02-21T08:37:02.986Z,1.51
2018-02-21T08:38:29.047Z,1.53
2018-02-21T08:39:57.024Z,1.56
2018-02-21T08:41:23.162Z,1.60
2018-02-21T08:42:51.337Z,1.64
2018-02-21T08:44:18.355Z,1.68
2018-02-21T08:45:44.512Z,1.71
2018-02-21T08:47:12.771Z,1.74
2018-02-21T08:48:39.769Z,1.76
2018-02-21T08:50:06.812Z,1.79
2018-02-21T08:51:32.985Z,1.81
2018-02-21T08:53:00.015Z,1.84
2018-02-21T08:54:28.121Z,1.88
2018-02-21T08:55:55.204Z,1.91
2018-02-21T08:57:21.692Z,1.96
2018-02-21T08:58:48.492Z,1.99
2018-02-21T09:00:14.561Z,2.02
2018-02-21T09:01:40.895Z,2.05
2018-02-21T09:03:08.587Z,2.09
2018-02-21T09:04:35.333Z,2.12
2018-02-21T09:06:02.430Z,2.14
2018-02-21T09:07:29.567Z,2.16
2018-02-21T09:08:55.920Z,2.19
2018-02-21T09:10:24.176Z,2.21
2018-02-21T09:11:51.309Z,2.23
2018-02-21T09:13:18.349Z,2.24
2018-02-21T09:14:44.572Z,2.25
2018-02-21T09:16:12.796Z,2.28
2018-02-21T09:17:38.801Z,2.29
2018-02-21T09:19:06.886Z,2.31
2018-02-21T09:20:33.903Z,2.32
2018-02-21T09:21:59.568Z,2.34
2018-02-21T09:23:27.911Z,2.39
2018-02-21T09:24:55.176Z,2.40
2018-02-21T09:26:21.546Z,2.43
2018-02-21T09:27:48.642Z,2.47
2018-02-21T09:29:15.865Z,2.51
2018-02-21T09:30:44.218Z,2.56
2018-02-21T09:32:11.234Z,2.59
2018-02-21T09:33:36.984Z,2.61
2018-02-21T09:35:04.119Z,2.66
2018-02-21T09:36:32.203Z,2.70
2018-02-21T09:37:59.397Z,2.74
2018-02-21T09:39:26.665Z,2.77
2018-02-21T09:40:53.005Z,2.79
2018-02-21T09:42:20.332Z,2.79
2018-02-21T09:43:47.349Z,2.81
2018-02-21T09:45:14.523Z,2.83
2018-02-21T09:46:42.588Z,2.85
2018-02-21T09:48:08.966Z,2.86
2018-02-21T09:49:35.715Z,2.86
2018-02-21T09:51:02.722Z,2.86
2018-02-21T09:52:29.828Z,2.88
2018-02-21T09:53:56.749Z,2.90
2018-02-21T09:55:23.860Z,2.93
2018-02-21T09:56:50.933Z,2.98
2018-02-21T09:58:18.117Z,3.02
2018-02-21T09:59:45.524Z,3.06
2018-02-21T10:01:12.784Z,3.11
2018-02-21T10:02:40.035Z,3.13
2018-02-21T10:04:07.297Z,3.19
2018-02-21T10:05:34.287Z,3.21
2018-02-21T10:07:01.524Z,3.24
2018-02-21T10:08:27.572Z,3.27
2018-02-21T10:09:55.666Z,3.29
2018-02-21T10:11:21.729Z,3.30
2018-02-21T10:12:50.265Z,3.33
2018-02-21T10:14:16.579Z,3.36
2018-02-21T10:15:44.872Z,3.37
2018-02-21T10:17:11.073Z,3.40
2018-02-21T10:18:38.367Z,3.43
2018-02-21T10:20:06.567Z,3.49
2018-02-21T10:21:33.850Z,3.54
2018-02-21T10:23:00.859Z,3.61
2018-02-21T10:24:28.144Z,3.64
2018-02-21T10:25:54.257Z,3.69
2018-02-21T10:27:21.570Z,3.73
2018-02-21T10:28:48.797Z,3.76
2018-02-21T10:30:15.872Z,3.82
2018-02-21T10:31:44.218Z,3.86
2018-02-21T10:33:11.470Z,3.89
2018-02-21T10:34:38.671Z,3.90
2018-02-21T10:36:04.871Z,3.87
2018-02-21T10:37:31.837Z,3.86
2018-02-21T10:38:59.005Z,3.88
2018-02-21T10:40:26.265Z,3.92
2018-02-21T10:41:54.464Z,3.92
2018-02-21T10:43:21.667Z,3.89
2018-02-21T10:44:49.055Z,3.88
2018-02-21T10:46:15.317Z,3.88
2018-02-21T10:47:42.490Z,3.87
2018-02-21T10:49:10.731Z,3.87
2018-02-21T10:50:36.865Z,3.84
2018-02-21T10:52:03.779Z,3.83
2018-02-21T10:53:30.740Z,3.85
2018-02-21T10:54:58.451Z,3.86
2018-02-21T10:56:24.222Z,3.85
2018-02-21T10:57:52.313Z,3.83
2018-02-21T10:59:18.396Z,3.82
2018-02-21T11:00:46.560Z,3.79
2018-02-21T11:02:12.491Z,3.77
2018-02-21T11:03:39.684Z,3.75
2018-02-21T11:05:06.875Z,3.74
2018-02-21T11:06:34.952Z,3.73
2018-02-21T11:08:00.788Z,3.73
2018-02-21T11:09:29.088Z,3.74
2018-02-21T11:10:55.390Z,3.76
2018-02-21T11:12:23.588Z,3.81
2018-02-21T11:13:49.359Z,3.82
2018-02-21T11:15:15.941Z,3.81
2018-02-21T11:16:43.262Z,3.81
2018-02-21T11:18:11.454Z,3.86
2018-02-21T11:19:38.389Z,3.90
2018-02-21T11:21:05.559Z,3.94
2018-02-21T11:22:31.815Z,3.98
2018-02-21T11:23:58.784Z,4.02
2018-02-21T11:25:26.650Z,4.03
2018-02-21T11:26:52.480Z,4.04
2018-02-21T11:28:19.415Z,4.02
2018-02-21T11:29:46.534Z,3.96
2018-02-21T11:31:13.846Z,3.89
2018-02-21T11:32:41.095Z,3.84
2018-02-21T11:34:09.306Z,3.77
2018-02-21T11:35:36.531Z,3.72
2018-02-21T11:37:02.668Z,3.68
2018-02-21T11:38:30.668Z,3.63
2018-02-21T11:39:56.384Z,3.61
2018-02-21T11:41:23.528Z,3.60
2018-02-21T11:42:51.818Z,3.58
2018-02-21T11:44:18.057Z,3.58
2018-02-21T11:45:45.421Z,3.58
2018-02-21T11:47:13.715Z,3.58
2018-02-21T11:48:39.746Z,3.61
2018-02-21T11:50:07.035Z,3.62
2018-02-21T11:51:35.243Z,3.64
2018-02-21T11:53:01.447Z,3.66
2018-02-21T11:54:28.760Z,3.65
2018-02-21T11:55:55.653Z,3.66
2018-02-21T11:57:22.810Z,3.66
2018-02-21T11:58:49.645Z,3.66
2018-02-21T12:00:17.734Z,3.65
2018-02-21T12:01:43.981Z,3.64
2018-02-21T12:03:11.901Z,3.62
2018-02-21T12:04:38.053Z,3.59
2018-02-21T12:06:04.982Z,3.56
2018-02-21T12:07:33.069Z,3.54
2018-02-21T12:09:00.408Z,3.53
2018-02-21T12:10:27.464Z,3.55
2018-02-21T12:11:54.583Z,3.55
2018-02-21T12:13:21.328Z,3.56
2018-02-21T12:14:47.232Z,3.55
2018-02-21T12:16:14.522Z,3.55
2018-02-21T12:17:41.616Z,3.57
2018-02-21T12:19:08.501Z,3.59
2018-02-21T12:20:36.139Z,3.61
2018-02-21T12:22:02.091Z,3.64
2018-02-21T12:23:30.389Z,3.66
2018-02-21T12:24:57.639Z,3.68
2018-02-21T12:26:23.857Z,3.70
2018-02-21T12:27:51.653Z,3.71
2018-02-21T12:29:18.997Z,3.74
2018-02-21T12:30:46.244Z,3.79
2018-02-21T12:32:12.502Z,3.82
2018-02-21T12:33:40.705Z,3.85
2018-02-21T12:35:06.969Z,3.87
2018-02-21T12:36:35.011Z,3.87
2018-02-21T12:38:00.683Z,3.87
2018-02-21T12:39:27.676Z,3.89
2018-02-21T12:40:54.946Z,3.90
2018-02-21T12:42:22.237Z,3.91
2018-02-21T12:43:49.498Z,3.90
2018-02-21T12:45:17.712Z,3.90
2018-02-21T12:46:43.600Z,3.89
2018-02-21T12:48:11.810Z,3.89
2018-02-21T12:49:39.056Z,3.88
2018-02-21T12:51:04.918Z,3.88
2018-02-21T12:52:32.915Z,3.87
2018-02-21T12:54:00.145Z,3.86
2018-02-21T12:55:27.015Z,3.89
2018-02-21T12:56:53.143Z,3.93
2018-02-21T12:58:21.378Z,3.97
2018-02-21T12:59:47.620Z,4.00
2018-02-21T13:01:14.698Z,4.04
2018-02-21T13:02:41.900Z,4.04
2018-02-21T13:04:09.963Z,4.05
2018-02-21T13:05:37.325Z,4.10
2018-02-21T13:07:03.463Z,4.12
2018-02-21T13:08:31.071Z,4.16
2018-02-21T13:09:57.291Z,4.18
2018-02-21T13:11:25.382Z,4.18
2018-02-21T13:12:51.639Z,4.18
2018-02-21T13:14:19.928Z,4.15
2018-02-21T13:15:47.178Z,4.10
2018-02-21T13:17:14.149Z,4.05
2018-02-21T13:18:40.209Z,4.01
2018-02-21T13:20:07.444Z,4.00
2018-02-21T13:21:34.627Z,3.99
2018-02-21T13:23:01.987Z,3.97
2018-02-21T13:24:29.052Z,3.89
2018-02-21T13:25:56.340Z,3.84
2018-02-21T13:27:24.545Z,3.71
2018-02-21T13:28:51.350Z,3.61
2018-02-21T13:30:17.629Z,3.52
2018-02-21T13:31:44.819Z,3.47
2018-02-21T13:33:13.159Z,3.42
2018-02-21T13:34:40.340Z,3.41
2018-02-21T13:36:06.420Z,3.41
2018-02-21T13:37:34.559Z,3.36
2018-02-21T13:39:00.400Z,3.35
2018-02-21T13:40:27.763Z,3.31
2018-02-21T13:41:55.580Z,3.26
2018-02-21T13:43:21.617Z,3.18
2018-02-21T13:44:48.293Z,3.10
2018-02-21T13:46:15.562Z,3.05
2018-02-21T13:47:42.304Z,3.00
2018-02-21T13:49:08.945Z,2.91
2018-02-21T13:50:36.165Z,2.80
2018-02-21T13:52:04.053Z,2.77
2018-02-21T13:53:32.784Z,2.72
2018-02-21T13:54:57.339Z,2.66
2018-02-21T13:56:24.246Z,2.58
2018-02-21T13:57:50.443Z,2.49
2018-02-21T13:59:18.399Z,2.40
2018-02-21T14:00:45.568Z,2.32
2018-02-21T14:02:12.394Z,2.25
2018-02-21T14:03:38.660Z,2.20
2018-02-21T14:05:05.836Z,2.16
2018-02-21T14:06:32.878Z,2.15
2018-02-21T14:08:00.584Z,2.13
2018-02-21T14:09:27.815Z,2.10
2018-02-21T14:10:54.604Z,2.08
2018-02-21T14:12:21.134Z,2.07
2018-02-21T14:13:47.821Z,2.09
2018-02-21T14:15:14.044Z,2.15
2018-02-21T14:16:41.333Z,2.20
2018-02-21T14:18:08.517Z,2.23
2018-02-21T14:19:36.805Z,2.28
2018-02-21T14:21:03.931Z,2.34
2018-02-21T14:22:29.878Z,2.43
2018-02-21T14:23:56.987Z,2.48
2018-02-21T14:25:25.118Z,2.50
2018-02-21T14:26:52.384Z,2.48
2018-02-21T14:28:19.616Z,2.48
2018-02-21T14:29:45.789Z,2.50
2018-02-21T14:31:14.100Z,2.51
2018-02-21T14:32:41.152Z,2.55
2018-02-21T14:34:08.257Z,2.59
2018-02-21T14:35:35.206Z,2.64
2018-02-21T14:37:02.269Z,2.72
2018-02-21T14:38:29.286Z,2.76
2018-02-21T14:39:55.223Z,2.80
2018-02-21T14:41:23.515Z,2.81
2018-02-21T14:42:50.241Z,2.79
2018-02-21T14:44:16.123Z,2.80
2018-02-21T14:45:44.447Z,2.84
2018-02-21T14:47:11.567Z,2.93
2018-02-21T14:48:38.734Z,3.00
2018-02-21T14:50:06.006Z,3.05
2018-02-21T14:51:32.097Z,3.11
2018-02-21T14:53:00.373Z,3.16
2018-02-21T14:54:26.404Z,3.11
2018-02-21T14:55:54.747Z,3.13
2018-02-21T14:57:22.038Z,3.18
2018-02-21T14:58:48.655Z,3.21
2018-02-21T15:00:14.902Z,3.13
2018-02-21T15:01:41.340Z,3.04
2018-02-21T15:03:09.498Z,2.97
2018-02-21T15:04:36.559Z,2.94
2018-02-21T15:06:02.658Z,2.91
2018-02-21T15:07:30.675Z,2.94
2018-02-21T15:08:56.737Z,2.99
2018-02-21T15:10:23.901Z,3.01
2018-02-21T15:11:51.254Z,3.01
2018-02-21T15:13:19.464Z,3.00
2018-02-21T15:14:45.669Z,3.04
2018-02-21T15:16:13.990Z,3.06
2018-02-21T15:17:41.078Z,3.10
2018-02-21T15:19:06.962Z,3.12
2018-02-21T15:20:35.193Z,3.14
2018-02-21T15:22:01.393Z,3.15
2018-02-21T15:23:29.529Z,3.15
2018-02-21T15:24:55.791Z,3.15
2018-02-21T15:26:24.072Z,3.16
2018-02-21T15:27:50.368Z,3.17
2018-02-21T15:29:17.682Z,3.16
2018-02-21T15:30:44.811Z,3.15
2018-02-21T15:32:12.049Z,3.13
2018-02-21T15:33:39.305Z,3.14
2018-02-21T15:35:07.387Z,3.15
2018-02-21T15:36:34.232Z,3.16
2018-02-21T15:38:00.253Z,3.17
2018-02-21T15:39:27.231Z,3.18
2018-02-21T15:40:55.544Z,3.20
2018-02-21T15:42:21.813Z,3.21
2018-02-21T15:43:49.883Z,3.20
2018-02-21T15:45:16.173Z,3.19
2018-02-21T15:46:43.188Z,3.18
2018-02-21T15:48:10.302Z,3.16
2018-02-21T15:49:36.946Z,3.16
2018-02-21T15:51:04.165Z,3.18
2018-02-21T15:52:30.683Z,3.19
2018-02-21T15:53:58.914Z,3.21
2018-02-21T15:55:26.145Z,3.23
2018-02-21T15:56:52.275Z,3.23
2018-02-21T15:58:19.608Z,3.22
2018-02-21T15:59:47.997Z,3.21
2018-02-21T16:01:14.034Z,3.21
2018-02-21T16:02:41.144Z,3.21
2018-02-21T16:04:08.403Z,3.20
2018-02-21T16:05:35.282Z,3.20
2018-02-21T16:07:03.149Z,3.19
2018-02-21T16:08:28.890Z,3.19
2018-02-21T16:09:56.006Z,3.17
2018-02-21T16:11:22.807Z,3.15
2018-02-21T16:12:50.891Z,3.15
2018-02-21T16:14:16.975Z,3.14
2018-02-21T16:15:45.073Z,3.12
2018-02-21T16:17:11.234Z,3.10
2018-02-21T16:18:39.315Z,3.08
2018-02-21T16:20:05.952Z,3.06
2018-02-21T16:21:32.994Z,3.05
2018-02-21T16:22:58.609Z,3.04
2018-02-21T16:24:25.836Z,3.02
2018-02-21T16:25:53.124Z,3.00
2018-02-21T16:27:19.818Z,2.99
2018-02-21T16:28:48.052Z,2.97
2018-02-21T16:30:14.181Z,2.95
2018-02-21T16:31:41.413Z,2.94
2018-02-21T16:33:09.435Z,2.92
2018-02-21T16:34:35.490Z,2.92
2018-02-21T16:36:02.686Z,2.89
2018-02-21T16:37:29.670Z,2.86
2018-02-21T16:38:57.797Z,2.79
2018-02-21T16:40:25.035Z,2.75
2018-02-21T16:41:51.299Z,2.71
2018-02-21T16:43:17.687Z,2.65
2018-02-21T16:44:44.787Z,2.64
2018-02-21T16:46:11.959Z,2.64
2018-02-21T16:47:39.177Z,2.62
2018-02-21T16:49:06.095Z,2.64
2018-02-21T16:50:34.227Z,2.64
2018-02-21T16:52:00.589Z,2.64
2018-02-21T16:53:26.725Z,2.65
2018-02-21T16:54:52.996Z,2.66
2018-02-21T16:56:21.284Z,2.67
2018-02-21T16:57:47.444Z,2.68
2018-02-21T16:59:14.185Z,2.69
2018-02-21T17:00:40.460Z,2.69
2018-02-21T17:02:07.633Z,2.67
2018-02-21T17:03:34.115Z,2.64
2018-02-21T17:05:02.265Z,2.61
2018-02-21T17:06:28.495Z,2.57
2018-02-21T17:07:55.936Z,2.53
2018-02-21T17:09:22.087Z,2.49
2018-02-21T17:10:50.155Z,2.47
2018-02-21T17:12:16.373Z,2.45
2018-02-21T17:13:43.674Z,2.43
2018-02-21T17:15:10.784Z,2.41
2018-02-21T17:16:38.429Z,2.39
2018-02-21T17:18:05.394Z,2.38
2018-02-21T17:19:31.571Z,2.36
2018-02-21T17:20:59.958Z,2.34
2018-02-21T17:22:27.044Z,2.29
2018-02-21T17:23:52.677Z,2.27
2018-02-21T17:26:47.916Z,2.18
2018-02-21T17:28:13.995Z,2.17
2018-02-21T17:29:40.418Z,2.16
2018-02-21T17:31:07.408Z,2.13
2018-02-21T17:32:35.389Z,2.12
2018-02-21T17:34:02.528Z,2.12
2018-02-21T17:35:28.862Z,2.10
2018-02-21T17:36:55.436Z,2.08
2018-02-21T17:38:22.560Z,2.06
2018-02-21T17:39:49.636Z,2.05
2018-02-21T17:41:16.133Z,2.06
2018-02-21T17:42:44.115Z,2.07
2018-02-21T17:44:10.224Z,2.08
2018-02-21T17:45:38.342Z,2.09
2018-02-21T17:47:05.457Z,2.09
2018-02-21T17:48:31.268Z,2.08
2018-02-21T17:49:59.278Z,2.07
2018-02-21T17:51:26.566Z,2.06
2018-02-21T17:52:53.326Z,2.05
2018-02-21T17:54:20.533Z,2.05
2018-02-21T17:55:46.581Z,2.01
2018-02-21T17:57:14.641Z,1.99
2018-02-21T17:58:40.366Z,1.94
2018-02-21T18:00:06.902Z,1.92
2018-02-21T18:01:33.866Z,1.90
2018-02-21T18:03:01.545Z,1.87
2018-02-21T18:04:28.757Z,1.86
2018-02-21T18:05:54.514Z,1.85
2018-02-21T18:07:21.717Z,1.84
2018-02-21T18:08:48.938Z,1.82
2018-02-21T18:10:17.165Z,1.78
2018-02-21T18:11:44.221Z,1.75
2018-02-21T18:13:10.339Z,1.75
2018-02-21T18:14:37.350Z,1.73
2018-02-21T18:16:04.640Z,1.71
2018-02-21T18:17:31.610Z,1.69
2018-02-21T18:18:59.786Z,1.69
2018-02-21T18:20:26.622Z,1.68
2018-02-21T18:21:53.794Z,1.67
2018-02-21T18:23:19.957Z,1.67
2018-02-21T18:24:48.156Z,1.66
2018-02-21T18:26:15.376Z,1.66
2018-02-21T18:27:42.485Z,1.64
2018-02-21T18:29:09.577Z,1.60
2018-02-21T18:30:36.055Z,1.57
2018-02-21T18:32:02.974Z,1.56
2018-02-21T18:33:30.209Z,1.56
2018-02-21T18:34:57.235Z,1.54
2018-02-21T18:36:23.261Z,1.52
2018-02-21T18:37:51.453Z,1.50
2018-02-21T18:39:17.658Z,1.48
2018-02-21T18:40:44.900Z,1.47
2018-02-21T18:42:11.820Z,1.48
2018-02-21T18:43:38.858Z,1.50
2018-02-21T18:45:05.814Z,1.50
2018-02-21T18:46:33.733Z,1.51
2018-02-21T18:47:59.162Z,1.52
2018-02-21T18:49:27.485Z,1.53
2018-02-21T18:50:54.383Z,1.54
2018-02-21T18:52:21.136Z,1.52
2018-02-21T18:53:48.216Z,1.50
2018-02-21T18:55:15.235Z,1.46
2018-02-21T18:56:41.964Z,1.43
2018-02-21T18:58:08.047Z,1.44
2018-02-21T18:59:35.165Z,1.45
2018-02-21T19:01:03.193Z,1.44
2018-02-21T19:02:30.319Z,1.43
2018-02-21T19:03:57.501Z,1.43
2018-02-21T19:05:23.677Z,1.44
2018-02-21T19:06:51.667Z,1.44
2018-02-21T19:08:18.464Z,1.43
2018-02-21T19:09:45.587Z,1.36
2018-02-21T19:11:12.801Z,1.31
2018-02-21T19:12:38.738Z,1.29
2018-02-21T19:14:06.842Z,1.26
2018-02-21T19:15:32.961Z,1.26